sensor_id;sensor_type;location;lat;lon;timestamp;pressure;altitude;pressure_sealevel;temperature;humidity
6208;BME280;3137;51.550;7.060;2022-09-01T00:01:57;65798.72;;;15.33;66.12
6208;BME280;3137;51.550;7.060;2022-09-01T00:06:54;65797.78;;;15.34;66.17
6208;BME280;3137;51.550;7.060;2022-09-01T00:09:22;65787.91;;;15.28;66.28
6208;BME280;3137;51.550;7.060;2022-09-01T00:11:51;65788.72;;;15.24;66.42
6208;BME280;3137;51.550;7.060;2022-09-01T00:14:28;65791.47;;;15.26;66.63
6208;BME280;3137;51.550;7.060;2022-09-01T00:19:26;65793.94;;;15.24;66.66
6208;BME280;3137;51.550;7.060;2022-09-01T00:21:53;65788.09;;;15.30;66.26
6208;BME280;3137;51.550;7.060;2022-09-01T00:24:19;65781.25;;;15.22;66.83
6208;BME280;3137;51.550;7.060;2022-09-01T00:26:46;65783.88;;;15.22;66.93
6208;BME280;3137;51.550;7.060;2022-09-01T00:29:13;65778.31;;;15.17;67.15
6208;BME280;3137;51.550;7.060;2022-09-01T00:31:40;65769.72;;;15.13;67.24
6208;BME280;3137;51.550;7.060;2022-09-01T00:34:06;65771.22;;;15.12;67.37
6208;BME280;3137;51.550;7.060;2022-09-01T00:36:33;65765.84;;;15.10;67.76
6208;BME280;3137;51.550;7.060;2022-09-01T00:39:00;65774.78;;;15.11;67.73
6208;BME280;3137;51.550;7.060;2022-09-01T00:41:32;65766.59;;;15.06;67.82
6208;BME280;3137;51.550;7.060;2022-09-01T00:44:03;65772.38;;;15.06;67.98
6208;BME280;3137;51.550;7.060;2022-09-01T00:54:22;65753.59;;;14.99;68.28
6208;BME280;3137;51.550;7.060;2022-09-01T00:56:49;65754.75;;;14.93;68.96
6208;BME280;3137;51.550;7.060;2022-09-01T00:59:24;65761.28;;;14.96;68.76
6208;BME280;3137;51.550;7.060;2022-09-01T01:01:53;65751.38;;;14.97;68.83
6208;BME280;3137;51.550;7.060;2022-09-01T01:04:19;65752.88;;;14.96;68.96
6208;BME280;3137;51.550;7.060;2022-09-01T01:06:49;65749.16;;;14.95;68.87
6208;BME280;3137;51.550;7.060;2022-09-01T01:09:25;65744.69;;;14.91;69.06
6208;BME280;3137;51.550;7.060;2022-09-01T01:16:47;65743.84;;;14.78;69.48
6208;BME280;3137;51.550;7.060;2022-09-01T01:19:20;65730.06;;;14.75;69.51
6208;BME280;3137;51.550;7.060;2022-09-01T01:22:09;65727.50;;;14.68;69.70
6208;BME280;3137;51.550;7.060;2022-09-01T01:24:57;65718.94;;;14.65;69.46
6208;BME280;3137;51.550;7.060;2022-09-01T01:29:50;65707.81;;;14.54;69.90
6208;BME280;3137;51.550;7.060;2022-09-01T01:32:19;65707.88;;;14.47;70.23
6208;BME280;3137;51.550;7.060;2022-09-01T01:34:46;65711.78;;;14.44;70.36
6208;BME280;3137;51.550;7.060;2022-09-01T01:42:08;65678.16;;;14.25;70.68
6208;BME280;3137;51.550;7.060;2022-09-01T01:44:36;65675.59;;;14.18;70.92
6208;BME280;3137;51.550;7.060;2022-09-01T01:47:05;65666.09;;;14.16;71.04
6208;BME280;3137;51.550;7.060;2022-09-01T01:52:01;65665.53;;;14.16;71.38
6208;BME280;3137;51.550;7.060;2022-09-01T01:54:31;65654.41;;;14.05;71.80
6208;BME280;3137;51.550;7.060;2022-09-01T01:56:59;65641.78;;;13.96;72.05
6208;BME280;3137;51.550;7.060;2022-09-01T01:59:26;65656.75;;;13.93;72.13
6208;BME280;3137;51.550;7.060;2022-09-01T02:01:55;65637.72;;;13.90;72.35
6208;BME280;3137;51.550;7.060;2022-09-01T02:06:50;65640.03;;;13.78;72.97
6208;BME280;3137;51.550;7.060;2022-09-01T02:09:19;65626.44;;;13.77;72.89
6208;BME280;3137;51.550;7.060;2022-09-01T02:11:46;65622.56;;;13.74;73.03
6208;BME280;3137;51.550;7.060;2022-09-01T02:14:13;65622.56;;;13.74;73.19
6208;BME280;3137;51.550;7.060;2022-09-01T02:16:41;65605.09;;;13.63;73.61
6208;BME280;3137;51.550;7.060;2022-09-01T02:19:09;65601.59;;;13.57;74.06
6208;BME280;3137;51.550;7.060;2022-09-01T02:21:37;65609.59;;;13.60;73.83
6208;BME280;3137;51.550;7.060;2022-09-01T02:24:09;65606.81;;;13.57;74.00
6208;BME280;3137;51.550;7.060;2022-09-01T02:26:39;65612.59;;;13.58;74.14
6208;BME280;3137;51.550;7.060;2022-09-01T02:29:12;65600.34;;;13.54;74.42
6208;BME280;3137;51.550;7.060;2022-09-01T02:34:12;65596.22;;;13.55;74.52
6208;BME280;3137;51.550;7.060;2022-09-01T02:36:45;65593.28;;;13.49;74.54
6208;BME280;3137;51.550;7.060;2022-09-01T02:39:25;65587.16;;;13.44;74.80
6208;BME280;3137;51.550;7.060;2022-09-01T02:41:51;65577.94;;;13.31;75.62
6208;BME280;3137;51.550;7.060;2022-09-01T02:44:23;65571.28;;;13.25;75.91
6208;BME280;3137;51.550;7.060;2022-09-01T02:46:49;65571.06;;;13.29;75.86
6208;BME280;3137;51.550;7.060;2022-09-01T02:49:21;65564.94;;;13.24;76.07
6208;BME280;3137;51.550;7.060;2022-09-01T02:51:55;65567.72;;;13.26;76.09
6208;BME280;3137;51.550;7.060;2022-09-01T02:54:29;65564.41;;;13.23;76.31
6208;BME280;3137;51.550;7.060;2022-09-01T02:56:56;65561.81;;;13.16;76.85
6208;BME280;3137;51.550;7.060;2022-09-01T02:59:25;65559.56;;;13.14;77.07
6208;BME280;3137;51.550;7.060;2022-09-01T03:01:55;65544.03;;;13.00;77.82
6208;BME280;3137;51.550;7.060;2022-09-01T03:04:22;65541.03;;;13.02;77.87
6208;BME280;3137;51.550;7.060;2022-09-01T03:06:50;65543.81;;;13.04;77.87
6208;BME280;3137;51.550;7.060;2022-09-01T03:09:21;65528.78;;;12.98;78.16
6208;BME280;3137;51.550;7.060;2022-09-01T03:11:51;65533.81;;;12.95;78.37
6208;BME280;3137;51.550;7.060;2022-09-01T03:14:18;65542.59;;;12.93;78.50
6208;BME280;3137;51.550;7.060;2022-09-01T03:16:45;65519.38;;;12.82;79.39
6208;BME280;3137;51.550;7.060;2022-09-01T03:19:11;65524.56;;;12.89;79.11
6208;BME280;3137;51.550;7.060;2022-09-01T03:21:42;65524.59;;;12.82;79.58
6208;BME280;3137;51.550;7.060;2022-09-01T03:24:11;65519.78;;;12.80;79.71
6208;BME280;3137;51.550;7.060;2022-09-01T03:26:41;65516.25;;;12.74;79.91
6208;BME280;3137;51.550;7.060;2022-09-01T03:29:08;65511.22;;;12.77;79.99
6208;BME280;3137;51.550;7.060;2022-09-01T03:31:35;65516.25;;;12.74;79.91
6208;BME280;3137;51.550;7.060;2022-09-01T03:34:03;65514.38;;;12.77;79.87
6208;BME280;3137;51.550;7.060;2022-09-01T03:36:35;65512.16;;;12.75;80.13
6208;BME280;3137;51.550;7.060;2022-09-01T03:39:02;65506.44;;;12.67;80.58
6208;BME280;3137;51.550;7.060;2022-09-01T03:41:31;65502.72;;;12.66;81.03
6208;BME280;3137;51.550;7.060;2022-09-01T03:43:58;65504.81;;;12.59;81.16
6208;BME280;3137;51.550;7.060;2022-09-01T03:46:28;65491.44;;;12.54;81.53
6208;BME280;3137;51.550;7.060;2022-09-01T03:49:04;65493.88;;;12.51;81.66
6208;BME280;3137;51.550;7.060;2022-09-01T03:51:35;65491.78;;;12.59;81.40
6208;BME280;3137;51.550;7.060;2022-09-01T03:54:04;65505.00;;;12.54;81.57
6208;BME280;3137;51.550;7.060;2022-09-01T03:56:30;65489.03;;;12.49;81.96
6208;BME280;3137;51.550;7.060;2022-09-01T03:58:59;65476.63;;;12.43;82.25
6208;BME280;3137;51.550;7.060;2022-09-01T04:01:27;65474.78;;;12.38;82.21
6208;BME280;3137;51.550;7.060;2022-09-01T04:03:57;65469.41;;;12.36;82.50
6208;BME280;3137;51.550;7.060;2022-09-01T04:06:28;65464.81;;;12.29;82.90
6208;BME280;3137;51.550;7.060;2022-09-01T04:08:56;65473.34;;;12.32;82.49
6208;BME280;3137;51.550;7.060;2022-09-01T04:11:30;65477.59;;;12.34;82.56
6208;BME280;3137;51.550;7.060;2022-09-01T04:13:59;65475.19;;;12.36;82.34
6208;BME280;3137;51.550;7.060;2022-09-01T04:16:30;65456.81;;;12.27;82.88
6208;BME280;3137;51.550;7.060;2022-09-01T04:19:18;65460.19;;;12.23;82.99
6208;BME280;3137;51.550;7.060;2022-09-01T04:21:54;65456.28;;;12.19;83.05
6208;BME280;3137;51.550;7.060;2022-09-01T04:24:24;65447.38;;;12.18;83.26
6208;BME280;3137;51.550;7.060;2022-09-01T04:26:54;65441.28;;;12.12;83.44
6208;BME280;3137;51.550;7.060;2022-09-01T04:29:24;65446.47;;;12.12;83.61
6208;BME280;3137;51.550;7.060;2022-09-01T04:31:57;65445.41;;;12.04;83.99
6208;BME280;3137;51.550;7.060;2022-09-01T04:34:29;65438.91;;;12.08;83.88
6208;BME280;3137;51.550;7.060;2022-09-01T04:37:07;65441.50;;;12.08;83.88
6208;BME280;3137;51.550;7.060;2022-09-01T04:39:34;65430.00;;;12.00;84.10
6208;BME280;3137;51.550;7.060;2022-09-01T04:42:02;65422.81;;;11.93;84.37
6208;BME280;3137;51.550;7.060;2022-09-01T04:44:34;65431.53;;;11.92;84.39
6208;BME280;3137;51.550;7.060;2022-09-01T04:47:02;65423.75;;;11.84;84.67
6208;BME280;3137;51.550;7.060;2022-09-01T04:49:31;65408.94;;;11.80;84.98
6208;BME280;3137;51.550;7.060;2022-09-01T04:51:59;65411.69;;;11.83;85.05
6208;BME280;3137;51.550;7.060;2022-09-01T04:54:26;65421.91;;;11.88;84.92
6208;BME280;3137;51.550;7.060;2022-09-01T04:56:52;65420.41;;;11.89;84.91
6208;BME280;3137;51.550;7.060;2022-09-01T04:59:22;65422.09;;;11.83;85.04
6208;BME280;3137;51.550;7.060;2022-09-01T05:01:53;65419.66;;;11.85;85.00
6208;BME280;3137;51.550;7.060;2022-09-01T05:04:23;65422.66;;;11.83;84.97
6208;BME280;3137;51.550;7.060;2022-09-01T05:06:54;65411.53;;;11.80;85.53
6208;BME280;3137;51.550;7.060;2022-09-01T05:09:37;65413.34;;;11.84;85.10
6208;BME280;3137;51.550;7.060;2022-09-01T05:12:18;65440.06;;;11.95;84.90
6208;BME280;3137;51.550;7.060;2022-09-01T05:17:18;65436.53;;;11.96;85.03
6208;BME280;3137;51.550;7.060;2022-09-01T05:19:47;65431.13;;;12.01;84.52
6208;BME280;3137;51.550;7.060;2022-09-01T05:22:14;65434.47;;;11.97;85.33
6208;BME280;3137;51.550;7.060;2022-09-01T05:24:59;65453.38;;;12.07;84.83
6208;BME280;3137;51.550;7.060;2022-09-01T05:27:39;65451.47;;;12.17;84.64
6208;BME280;3137;51.550;7.060;2022-09-01T05:30:07;65455.53;;;12.23;84.65
6208;BME280;3137;51.550;7.060;2022-09-01T05:32:34;65466.09;;;12.33;84.27
6208;BME280;3137;51.550;7.060;2022-09-01T05:35:05;65490.00;;;12.48;83.74
6208;BME280;3137;51.550;7.060;2022-09-01T05:37:35;65509.66;;;12.54;83.17
6208;BME280;3137;51.550;7.060;2022-09-01T05:40:05;65495.34;;;12.57;83.08
6208;BME280;3137;51.550;7.060;2022-09-01T05:42:34;65502.38;;;12.61;82.96
6208;BME280;3137;51.550;7.060;2022-09-01T05:45:02;65518.81;;;12.81;82.54
6208;BME280;3137;51.550;7.060;2022-09-01T05:47:29;65529.59;;;12.86;82.29
6208;BME280;3137;51.550;7.060;2022-09-01T05:49:56;65528.44;;;12.92;81.95
6208;BME280;3137;51.550;7.060;2022-09-01T05:52:23;65549.03;;;13.04;81.40
6208;BME280;3137;51.550;7.060;2022-09-01T06:00:04;65559.56;;;13.21;81.29
6208;BME280;3137;51.550;7.060;2022-09-01T06:02:39;65571.78;;;13.32;80.69
6208;BME280;3137;51.550;7.060;2022-09-01T06:05:07;65583.28;;;13.40;79.90
6208;BME280;3137;51.550;7.060;2022-09-01T06:07:34;65593.34;;;13.35;80.17
6208;BME280;3137;51.550;7.060;2022-09-01T06:10:06;65600.94;;;13.47;79.69
6208;BME280;3137;51.550;7.060;2022-09-01T06:12:33;65598.84;;;13.55;79.36
6208;BME280;3137;51.550;7.060;2022-09-01T06:14:59;65600.69;;;13.59;79.72
6208;BME280;3137;51.550;7.060;2022-09-01T06:19:56;65621.81;;;13.71;78.65
6208;BME280;3137;51.550;7.060;2022-09-01T06:22:26;65634.63;;;13.83;78.85
6208;BME280;3137;51.550;7.060;2022-09-01T06:24:54;65634.22;;;13.85;78.39
6208;BME280;3137;51.550;7.060;2022-09-01T06:27:33;65649.06;;;13.96;78.41
6208;BME280;3137;51.550;7.060;2022-09-01T06:30:05;65649.03;;;14.03;77.84
6208;BME280;3137;51.550;7.060;2022-09-01T06:32:43;65657.75;;;14.09;77.23
6208;BME280;3137;51.550;7.060;2022-09-01T06:35:10;65655.16;;;14.09;76.94
6208;BME280;3137;51.550;7.060;2022-09-01T06:42:46;65690.25;;;14.26;76.89
6208;BME280;3137;51.550;7.060;2022-09-01T06:45:16;65681.66;;;14.30;76.53
6208;BME280;3137;51.550;7.060;2022-09-01T06:50:12;65704.84;;;14.49;75.72
6208;BME280;3137;51.550;7.060;2022-09-01T06:53:00;65714.66;;;14.63;76.07
6208;BME280;3137;51.550;7.060;2022-09-01T06:55:56;65731.72;;;14.76;75.13
6208;BME280;3137;51.550;7.060;2022-09-01T06:58:23;65743.25;;;14.84;74.90
6208;BME280;3137;51.550;7.060;2022-09-01T07:00:51;65757.75;;;14.91;74.99
6208;BME280;3137;51.550;7.060;2022-09-01T07:03:18;65765.09;;;15.07;75.08
6208;BME280;3137;51.550;7.060;2022-09-01T07:05:59;65763.94;;;15.13;73.56
6208;BME280;3137;51.550;7.060;2022-09-01T07:09:00;65784.59;;;15.25;74.29
6208;BME280;3137;51.550;7.060;2022-09-01T07:12:11;65798.66;;;15.40;73.88
6208;BME280;3137;51.550;7.060;2022-09-01T07:17:49;65825.81;;;15.55;72.55
6208;BME280;3137;51.550;7.060;2022-09-01T07:20:20;65830.06;;;15.64;71.96
6208;BME280;3137;51.550;7.060;2022-09-01T07:22:54;65845.44;;;15.83;71.29
6208;BME280;3137;51.550;7.060;2022-09-01T07:28:53;65844.34;;;15.82;70.80
6208;BME280;3137;51.550;7.060;2022-09-01T07:34:24;65869.38;;;16.05;70.30
6208;BME280;3137;51.550;7.060;2022-09-01T07:37:08;65877.75;;;16.12;69.63
6208;BME280;3137;51.550;7.060;2022-09-01T07:39:56;65888.09;;;16.27;70.16
6208;BME280;3137;51.550;7.060;2022-09-01T07:43:01;65914.91;;;16.44;69.35
6208;BME280;3137;51.550;7.060;2022-09-01T07:48:27;65936.81;;;16.66;69.19
6208;BME280;3137;51.550;7.060;2022-09-01T07:51:15;65943.81;;;16.77;68.01
6208;BME280;3137;51.550;7.060;2022-09-01T07:56:29;65987.78;;;17.08;65.88
6208;BME280;3137;51.550;7.060;2022-09-01T07:58:56;65978.44;;;17.02;65.54
6208;BME280;3137;51.550;7.060;2022-09-01T08:01:26;65984.19;;;17.10;65.39
6208;BME280;3137;51.550;7.060;2022-09-01T08:03:55;65995.34;;;17.20;64.88
6208;BME280;3137;51.550;7.060;2022-09-01T08:06:24;66015.81;;;17.36;64.26
6208;BME280;3137;51.550;7.060;2022-09-01T08:08:55;66004.91;;;17.38;63.13
6208;BME280;3137;51.550;7.060;2022-09-01T08:14:12;66038.28;;;17.59;63.93
6208;BME280;3137;51.550;7.060;2022-09-01T08:16:38;66060.97;;;17.77;63.33
6208;BME280;3137;51.550;7.060;2022-09-01T08:25:53;66098.38;;;18.11;60.23
6208;BME280;3137;51.550;7.060;2022-09-01T08:28:19;66093.34;;;18.07;59.83
6208;BME280;3137;51.550;7.060;2022-09-01T08:30:52;66108.97;;;18.21;59.60
6208;BME280;3137;51.550;7.060;2022-09-01T08:33:21;66109.13;;;18.24;59.85
6208;BME280;3137;51.550;7.060;2022-09-01T08:40:50;66105.22;;;18.20;58.83
6208;BME280;3137;51.550;7.060;2022-09-01T08:43:59;66122.91;;;18.34;59.64
6208;BME280;3137;51.550;7.060;2022-09-01T08:49:17;66131.47;;;18.44;56.86
6208;BME280;3137;51.550;7.060;2022-09-01T09:19:08;66226.94;;;19.31;54.01
6208;BME280;3137;51.550;7.060;2022-09-01T09:21:38;66221.91;;;19.27;54.34
6208;BME280;3137;51.550;7.060;2022-09-01T09:26:50;66231.38;;;19.35;54.15
6208;BME280;3137;51.550;7.060;2022-09-01T09:29:16;66241.84;;;19.42;54.48
6208;BME280;3137;51.550;7.060;2022-09-01T09:31:43;66261.63;;;19.56;54.49
6208;BME280;3137;51.550;7.060;2022-09-01T09:34:36;66266.47;;;19.65;53.41
6208;BME280;3137;51.550;7.060;2022-09-01T09:37:19;66252.97;;;19.60;52.81
6208;BME280;3137;51.550;7.060;2022-09-01T09:45:02;66264.75;;;19.63;52.15
6208;BME280;3137;51.550;7.060;2022-09-01T09:55:27;66292.31;;;19.91;52.06
6208;BME280;3137;51.550;7.060;2022-09-01T09:58:00;66301.88;;;19.92;51.14
6208;BME280;3137;51.550;7.060;2022-09-01T10:05:38;66282.16;;;19.89;51.76
6208;BME280;3137;51.550;7.060;2022-09-01T10:08:12;66282.56;;;19.87;51.12
6208;BME280;3137;51.550;7.060;2022-09-01T10:10:44;66291.19;;;19.90;51.27
6208;BME280;3137;51.550;7.060;2022-09-01T10:15:55;66305.16;;;20.02;52.10
6208;BME280;3137;51.550;7.060;2022-09-01T10:18:25;66324.56;;;20.18;51.51
6208;BME280;3137;51.550;7.060;2022-09-01T10:21:07;66331.44;;;20.26;50.99
6208;BME280;3137;51.550;7.060;2022-09-01T10:26:09;66313.53;;;20.10;52.27
6208;BME280;3137;51.550;7.060;2022-09-01T10:31:16;66335.34;;;20.30;51.70
6208;BME280;3137;51.550;7.060;2022-09-01T10:36:11;66348.53;;;20.47;50.85
6208;BME280;3137;51.550;7.060;2022-09-01T10:38:41;66337.56;;;20.32;52.10
6208;BME280;3137;51.550;7.060;2022-09-01T10:47:26;66346.59;;;20.33;52.22
6208;BME280;3137;51.550;7.060;2022-09-01T10:49:58;66354.38;;;20.47;51.36
6208;BME280;3137;51.550;7.060;2022-09-01T10:55:18;66367.06;;;20.56;51.48
6208;BME280;3137;51.550;7.060;2022-09-01T11:00:45;66348.03;;;20.39;51.08
6208;BME280;3137;51.550;7.060;2022-09-01T11:06:32;66359.78;;;20.50;52.72
6208;BME280;3137;51.550;7.060;2022-09-01T11:11:46;66363.22;;;20.63;51.37
6208;BME280;3137;51.550;7.060;2022-09-01T11:14:18;66384.22;;;20.70;51.81
6208;BME280;3137;51.550;7.060;2022-09-01T11:17:22;66399.66;;;20.88;52.43
6208;BME280;3137;51.550;7.060;2022-09-01T11:22:29;66410.13;;;20.96;50.84
6208;BME280;3137;51.550;7.060;2022-09-01T11:32:45;66444.25;;;21.27;50.43
6208;BME280;3137;51.550;7.060;2022-09-01T11:37:51;66422.97;;;21.07;51.19
6208;BME280;3137;51.550;7.060;2022-09-01T11:45:30;66422.03;;;21.09;50.15
6208;BME280;3137;51.550;7.060;2022-09-01T11:53:06;66431.53;;;21.17;51.49
6208;BME280;3137;51.550;7.060;2022-09-01T11:55:39;66425.94;;;21.12;51.32
6208;BME280;3137;51.550;7.060;2022-09-01T12:00:43;66418.50;;;21.03;50.22
6208;BME280;3137;51.550;7.060;2022-09-01T12:11:18;66422.97;;;21.07;50.08
6208;BME280;3137;51.550;7.060;2022-09-01T12:16:27;66442.16;;;21.27;50.25
6208;BME280;3137;51.550;7.060;2022-09-01T12:23:51;66439.78;;;21.23;49.94
6208;BME280;3137;51.550;7.060;2022-09-01T12:26:22;66433.75;;;21.20;50.08
6208;BME280;3137;51.550;7.060;2022-09-01T12:36:29;66456.56;;;21.38;49.72
6208;BME280;3137;51.550;7.060;2022-09-01T12:41:45;66440.88;;;21.24;50.83
6208;BME280;3137;51.550;7.060;2022-09-01T12:44:32;66453.22;;;21.35;49.55
6208;BME280;3137;51.550;7.060;2022-09-01T12:47:08;66442.16;;;21.27;49.77
6208;BME280;3137;51.550;7.060;2022-09-01T12:49:41;66445.28;;;21.35;49.49
6208;BME280;3137;51.550;7.060;2022-09-01T12:54:47;66471.13;;;21.51;48.80
6208;BME280;3137;51.550;7.060;2022-09-01T13:01:15;66454.91;;;21.36;48.77
6208;BME280;3137;51.550;7.060;2022-09-01T13:03:17;66470.00;;;21.50;48.22
6208;BME280;3137;51.550;7.060;2022-09-01T13:05:56;66454.41;;;21.46;47.98
6208;BME280;3137;51.550;7.060;2022-09-01T13:15:52;66443.13;;;21.26;47.84
6208;BME280;3137;51.550;7.060;2022-09-01T13:18:20;66449.84;;;21.32;48.51
6208;BME280;3137;51.550;7.060;2022-09-01T13:20:49;66458.81;;;21.40;48.12
6208;BME280;3137;51.550;7.060;2022-09-01T13:23:16;66480.78;;;21.62;46.73
6208;BME280;3137;51.550;7.060;2022-09-01T13:25:43;66476.88;;;21.59;47.17
6208;BME280;3137;51.550;7.060;2022-09-01T13:30:37;66474.06;;;21.56;47.10
6208;BME280;3137;51.550;7.060;2022-09-01T13:33:04;66483.41;;;21.62;47.03
6208;BME280;3137;51.550;7.060;2022-09-01T13:38:18;66478.41;;;21.58;46.04
6208;BME280;3137;51.550;7.060;2022-09-01T13:40:46;66474.94;;;21.62;46.04
6208;BME280;3137;51.550;7.060;2022-09-01T13:43:14;66475.59;;;21.55;46.47
6208;BME280;3137;51.550;7.060;2022-09-01T13:45:41;66482.31;;;21.61;46.32
6208;BME280;3137;51.550;7.060;2022-09-01T13:55:54;66494.31;;;21.67;45.60
6208;BME280;3137;51.550;7.060;2022-09-01T13:58:25;66489.72;;;21.70;44.90
6208;BME280;3137;51.550;7.060;2022-09-01T14:00:52;66481.34;;;21.63;44.77
6208;BME280;3137;51.550;7.060;2022-09-01T14:03:21;66478.44;;;21.67;44.41
6208;BME280;3137;51.550;7.060;2022-09-01T14:05:49;66488.63;;;21.69;44.54
6208;BME280;3137;51.550;7.060;2022-09-01T14:08:18;66498.69;;;21.79;44.78
6208;BME280;3137;51.550;7.060;2022-09-01T14:13:16;66520.50;;;21.98;43.50
6208;BME280;3137;51.550;7.060;2022-09-01T14:18:09;66506.94;;;21.84;43.54
6208;BME280;3137;51.550;7.060;2022-09-01T14:20:38;66506.38;;;21.83;43.50
6208;BME280;3137;51.550;7.060;2022-09-01T14:25:36;66508.44;;;21.83;43.59
6208;BME280;3137;51.550;7.060;2022-09-01T14:30:33;66500.66;;;21.85;43.27
6208;BME280;3137;51.550;7.060;2022-09-01T14:33:00;66508.22;;;21.87;42.96
6208;BME280;3137;51.550;7.060;2022-09-01T14:42:54;66506.06;;;21.78;42.83
6208;BME280;3137;51.550;7.060;2022-09-01T14:45:23;66513.66;;;21.90;42.55
6208;BME280;3137;51.550;7.060;2022-09-01T14:47:53;66503.16;;;21.83;42.76
6208;BME280;3137;51.550;7.060;2022-09-01T14:50:21;66502.47;;;21.80;42.75
6208;BME280;3137;51.550;7.060;2022-09-01T14:57:44;66486.69;;;21.73;42.23
6208;BME280;3137;51.550;7.060;2022-09-01T15:00:11;66496.31;;;21.74;42.33
6208;BME280;3137;51.550;7.060;2022-09-01T15:02:39;66490.28;;;21.71;42.40
6208;BME280;3137;51.550;7.060;2022-09-01T15:05:07;66497.56;;;21.78;42.48
6208;BME280;3137;51.550;7.060;2022-09-01T15:12:27;66507.09;;;21.86;42.00
6208;BME280;3137;51.550;7.060;2022-09-01T15:14:57;66501.22;;;21.86;41.46
6208;BME280;3137;51.550;7.060;2022-09-01T15:22:18;66505.31;;;21.92;41.55
6208;BME280;3137;51.550;7.060;2022-09-01T15:24:45;66514.34;;;21.93;41.24
6208;BME280;3137;51.550;7.060;2022-09-01T15:27:12;66522.19;;;22.00;41.70
6208;BME280;3137;51.550;7.060;2022-09-01T15:34:53;66528.75;;;22.04;40.78
6208;BME280;3137;51.550;7.060;2022-09-01T15:37:20;66530.44;;;22.05;40.75
6208;BME280;3137;51.550;7.060;2022-09-01T15:42:12;66531.66;;;22.16;40.79
6208;BME280;3137;51.550;7.060;2022-09-01T15:44:41;66541.81;;;22.18;40.56
6208;BME280;3137;51.550;7.060;2022-09-01T15:47:08;66550.31;;;22.18;40.68
6208;BME280;3137;51.550;7.060;2022-09-01T15:49:35;66551.31;;;22.27;39.85
6208;BME280;3137;51.550;7.060;2022-09-01T15:54:27;66544.69;;;22.13;40.49
6208;BME280;3137;51.550;7.060;2022-09-01T15:59:22;66532.53;;;22.05;39.83
6208;BME280;3137;51.550;7.060;2022-09-01T16:04:18;66522.19;;;22.00;40.71
6208;BME280;3137;51.550;7.060;2022-09-01T16:06:52;66517.16;;;21.95;39.97
6208;BME280;3137;51.550;7.060;2022-09-01T16:19:31;66503.56;;;21.81;40.42
6208;BME280;3137;51.550;7.060;2022-09-01T16:22:26;66498.69;;;21.79;40.13
6208;BME280;3137;51.550;7.060;2022-09-01T16:24:58;66504.84;;;21.84;40.07
6208;BME280;3137;51.550;7.060;2022-09-01T16:27:33;66504.84;;;21.84;39.89
6208;BME280;3137;51.550;7.060;2022-09-01T16:34:56;66484.53;;;21.63;40.45
6208;BME280;3137;51.550;7.060;2022-09-01T16:37:47;66479.66;;;21.61;39.75
6208;BME280;3137;51.550;7.060;2022-09-01T16:40:40;66480.06;;;21.59;40.38
6208;BME280;3137;51.550;7.060;2022-09-01T16:43:30;66478.00;;;21.60;39.98
6208;BME280;3137;51.550;7.060;2022-09-01T16:49:24;66480.63;;;21.60;39.76
6208;BME280;3137;51.550;7.060;2022-09-01T16:52:08;66479.50;;;21.59;39.83
6208;BME280;3137;51.550;7.060;2022-09-01T16:55:04;66477.13;;;21.54;39.81
6208;BME280;3137;51.550;7.060;2022-09-01T17:00:31;66461.22;;;21.45;40.50
6208;BME280;3137;51.550;7.060;2022-09-01T17:08:20;66461.03;;;21.42;39.85
6208;BME280;3137;51.550;7.060;2022-09-01T17:13:51;66448.75;;;21.31;40.16
6208;BME280;3137;51.550;7.060;2022-09-01T17:16:24;66446.66;;;21.31;40.55
6208;BME280;3137;51.550;7.060;2022-09-01T17:21:30;66448.19;;;21.30;40.34
6208;BME280;3137;51.550;7.060;2022-09-01T17:24:09;66448.75;;;21.31;40.22
6208;BME280;3137;51.550;7.060;2022-09-01T17:26:43;66433.66;;;21.27;40.20
6208;BME280;3137;51.550;7.060;2022-09-01T17:29:19;66442.25;;;21.20;40.59
6208;BME280;3137;51.550;7.060;2022-09-01T17:32:13;66439.78;;;21.23;40.64
6208;BME280;3137;51.550;7.060;2022-09-01T17:35:22;66433.22;;;21.19;41.13
6208;BME280;3137;51.550;7.060;2022-09-01T17:43:29;66412.34;;;20.98;42.13
6208;BME280;3137;51.550;7.060;2022-09-01T17:46:10;66399.50;;;20.86;42.84
6208;BME280;3137;51.550;7.060;2022-09-01T17:56:39;66368.19;;;20.57;44.63
6208;BME280;3137;51.550;7.060;2022-09-01T17:59:13;66359.97;;;20.52;44.87
6208;BME280;3137;51.550;7.060;2022-09-01T18:12:01;66322.88;;;20.16;46.73
6208;BME280;3137;51.550;7.060;2022-09-01T18:17:24;66298.47;;;19.96;47.63
6208;BME280;3137;51.550;7.060;2022-09-01T18:22:40;66296.88;;;19.88;48.08
6208;BME280;3137;51.550;7.060;2022-09-01T18:25:17;66280.97;;;19.78;48.26
6208;BME280;3137;51.550;7.060;2022-09-01T18:27:44;66276.09;;;19.76;48.47
6208;BME280;3137;51.550;7.060;2022-09-01T18:30:14;66279.84;;;19.77;48.77
6208;BME280;3137;51.550;7.060;2022-09-01T18:40:47;66249.91;;;19.45;49.51
6208;BME280;3137;51.550;7.060;2022-09-01T18:51:06;66219.13;;;19.24;50.23
6208;BME280;3137;51.550;7.060;2022-09-01T18:53:44;66209.31;;;19.10;50.66
6208;BME280;3137;51.550;7.060;2022-09-01T19:02:11;66193.25;;;18.98;50.83
6208;BME280;3137;51.550;7.060;2022-09-01T19:04:42;66197.19;;;19.02;50.90
6208;BME280;3137;51.550;7.060;2022-09-01T19:10:26;66186.97;;;18.90;51.21
6208;BME280;3137;51.550;7.060;2022-09-01T19:20:51;66173.72;;;18.80;51.21
6208;BME280;3137;51.550;7.060;2022-09-01T19:23:45;66169.25;;;18.76;51.42
6208;BME280;3137;51.550;7.060;2022-09-01T19:26:19;66151.53;;;18.62;51.68
6208;BME280;3137;51.550;7.060;2022-09-01T19:29:09;66150.28;;;18.59;51.56
6208;BME280;3137;51.550;7.060;2022-09-01T19:31:40;66146.53;;;18.58;51.74
6208;BME280;3137;51.550;7.060;2022-09-01T19:34:24;66137.41;;;18.47;51.96
6208;BME280;3137;51.550;7.060;2022-09-01T19:36:59;66123.09;;;18.36;52.12
6208;BME280;3137;51.550;7.060;2022-09-01T19:39:32;66134.31;;;18.39;52.08
6208;BME280;3137;51.550;7.060;2022-09-01T19:44:33;66118.63;;;18.32;52.20
6208;BME280;3137;51.550;7.060;2022-09-01T19:49:51;66120.13;;;18.31;51.88
6208;BME280;3137;51.550;7.060;2022-09-01T19:52:37;66099.97;;;18.20;52.05
6208;BME280;3137;51.550;7.060;2022-09-01T19:58:01;66093.19;;;18.04;52.40
6208;BME280;3137;51.550;7.060;2022-09-01T20:00:44;66093.19;;;18.04;52.65
6208;BME280;3137;51.550;7.060;2022-09-01T20:03:40;66081.63;;;17.96;53.00
6208;BME280;3137;51.550;7.060;2022-09-01T20:06:16;66084.88;;;17.90;52.91
6208;BME280;3137;51.550;7.060;2022-09-01T20:08:55;66083.31;;;17.98;52.69
6208;BME280;3137;51.550;7.060;2022-09-01T20:11:48;66076.59;;;17.92;52.55
6208;BME280;3137;51.550;7.060;2022-09-01T20:14:34;66069.59;;;17.80;52.91
6208;BME280;3137;51.550;7.060;2022-09-01T20:25:18;66047.03;;;17.65;53.11